createdAt,value
2023-05-23T00:00:29.025Z,23.80
2023-05-23T00:02:57.116Z,23.80
2023-05-23T00:05:27.171Z,23.80
2023-05-23T00:07:54.803Z,23.80
2023-05-23T00:10:23.041Z,23.80
2023-05-23T00:12:51.120Z,23.70
2023-05-23T00:15:19.023Z,23.70
2023-05-23T00:17:47.296Z,23.70
2023-05-23T00:20:15.188Z,23.70
2023-05-23T00:22:46.303Z,23.60
2023-05-23T00:25:14.439Z,23.60
2023-05-23T00:27:42.258Z,23.60
2023-05-23T00:30:11.587Z,23.60
2023-05-23T00:32:48.838Z,23.60
2023-05-23T00:35:17.467Z,23.60
2023-05-23T00:37:45.827Z,23.60
2023-05-23T00:40:15.955Z,23.60
2023-05-23T00:42:44.198Z,23.60
2023-05-23T00:45:13.210Z,23.60
2023-05-23T00:47:41.926Z,23.50
2023-05-23T00:50:16.118Z,23.50
2023-05-23T00:52:45.683Z,23.50
2023-05-23T00:55:13.917Z,23.50
2023-05-23T00:57:44.704Z,23.40
2023-05-23T01:00:13.743Z,23.40
2023-05-23T01:02:46.436Z,23.40
2023-05-23T01:05:18.527Z,23.40
2023-05-23T01:07:47.231Z,23.40
2023-05-23T01:10:18.010Z,23.40
2023-05-23T01:13:22.622Z,23.40
2023-05-23T01:16:17.381Z,23.40
2023-05-23T01:19:01.012Z,23.40
2023-05-23T01:21:30.054Z,23.30
2023-05-23T01:24:04.177Z,23.30
2023-05-23T01:26:51.077Z,23.30
2023-05-23T01:29:25.657Z,23.20
2023-05-23T01:31:55.108Z,23.20
2023-05-23T01:34:24.391Z,23.20
2023-05-23T01:36:56.756Z,23.20
2023-05-23T01:39:25.001Z,23.20
2023-05-23T01:41:54.341Z,23.20
2023-05-23T01:44:23.131Z,23.10
2023-05-23T01:46:51.079Z,23.10
2023-05-23T01:49:20.121Z,23.10
2023-05-23T01:52:10.804Z,23.10
2023-05-23T01:54:39.611Z,23.10
2023-05-23T01:57:07.559Z,23.00
2023-05-23T01:59:38.159Z,23.00
2023-05-23T02:02:07.629Z,23.00
2023-05-23T02:04:35.618Z,23.00
2023-05-23T02:07:02.867Z,23.00
2023-05-23T02:09:31.093Z,23.00
2023-05-23T02:11:59.837Z,23.00
2023-05-23T02:14:28.735Z,23.10
2023-05-23T02:16:59.231Z,23.00
2023-05-23T02:19:27.830Z,23.00
2023-05-23T02:21:55.456Z,23.00
2023-05-23T02:24:23.295Z,23.00
2023-05-23T02:26:52.530Z,23.00
2023-05-23T02:29:20.189Z,23.00
2023-05-23T02:31:47.939Z,23.00
2023-05-23T02:34:15.391Z,23.00
2023-05-23T02:36:43.577Z,23.00
2023-05-23T02:39:11.403Z,22.90
2023-05-23T02:41:39.098Z,22.90
2023-05-23T02:44:09.943Z,22.90
2023-05-23T02:46:39.152Z,22.90
2023-05-23T02:49:07.010Z,22.90
2023-05-23T02:51:35.695Z,22.80
2023-05-23T02:54:03.572Z,22.80
2023-05-23T02:56:31.640Z,22.80
2023-05-23T02:58:59.556Z,22.70
2023-05-23T03:01:28.027Z,22.70
2023-05-23T03:03:56.183Z,22.70
2023-05-23T03:06:23.779Z,22.70
2023-05-23T03:08:52.035Z,22.70
2023-05-23T03:11:22.867Z,22.70
2023-05-23T03:13:50.513Z,22.70
2023-05-23T03:16:18.074Z,22.70
2023-05-23T03:18:46.328Z,22.70
2023-05-23T03:21:13.814Z,22.70
2023-05-23T03:23:41.799Z,22.70
2023-05-23T03:26:09.522Z,22.60
2023-05-23T03:28:37.021Z,22.60
2023-05-23T03:31:05.762Z,22.60
2023-05-23T03:33:33.984Z,22.60
2023-05-23T03:36:01.868Z,22.50
2023-05-23T03:38:29.334Z,22.50
2023-05-23T03:41:02.762Z,22.50
2023-05-23T03:43:30.567Z,22.50
2023-05-23T03:45:59.532Z,22.50
2023-05-23T03:48:27.204Z,22.50
2023-05-23T03:50:54.741Z,22.50
2023-05-23T03:53:23.145Z,22.40
2023-05-23T03:55:50.997Z,22.40
2023-05-23T03:58:19.199Z,22.40
2023-05-23T04:00:48.080Z,22.40
2023-05-23T04:03:17.882Z,22.40
2023-05-23T04:05:46.287Z,22.40
2023-05-23T04:08:14.245Z,22.40
2023-05-23T04:10:42.256Z,22.40
2023-05-23T04:13:13.214Z,22.40
2023-05-23T04:15:44.329Z,22.40
2023-05-23T04:18:13.219Z,22.40
2023-05-23T04:20:40.761Z,22.40
2023-05-23T04:23:08.749Z,22.40
2023-05-23T04:25:38.127Z,22.40
2023-05-23T04:28:08.312Z,22.40
2023-05-23T04:30:35.806Z,22.40
2023-05-23T04:33:05.361Z,22.40
2023-05-23T04:35:34.620Z,22.40
2023-05-23T04:38:04.428Z,22.40
2023-05-23T04:40:33.220Z,22.40
2023-05-23T04:43:05.753Z,22.50
2023-05-23T04:45:42.715Z,22.50
2023-05-23T04:48:19.725Z,22.50
2023-05-23T04:50:48.084Z,22.50
2023-05-23T04:53:15.752Z,22.50
2023-05-23T04:55:44.272Z,22.50
2023-05-23T04:58:14.184Z,22.60
2023-05-23T05:00:44.635Z,22.60
2023-05-23T05:03:14.886Z,22.60
2023-05-23T05:05:44.472Z,22.60
2023-05-23T05:08:12.272Z,22.60
2023-05-23T05:10:41.495Z,22.60
2023-05-23T05:13:20.234Z,22.60
2023-05-23T05:15:49.747Z,22.60
2023-05-23T05:18:18.472Z,22.60
2023-05-23T05:20:46.496Z,22.70
2023-05-23T05:23:15.446Z,22.70
2023-05-23T05:25:43.462Z,22.80
2023-05-23T05:28:11.470Z,22.80
2023-05-23T05:30:41.325Z,22.90
2023-05-23T05:33:10.944Z,22.90
2023-05-23T05:35:41.361Z,22.90
2023-05-23T05:38:11.233Z,23.00
2023-05-23T05:40:40.556Z,23.00
2023-05-23T05:43:10.479Z,23.10
2023-05-23T05:45:38.305Z,23.10
2023-05-23T05:48:06.650Z,23.10
2023-05-23T05:50:34.509Z,23.20
2023-05-23T05:53:03.879Z,23.20
2023-05-23T05:55:34.124Z,23.20
2023-05-23T05:58:02.069Z,23.30
2023-05-23T06:00:31.957Z,23.30
2023-05-23T06:02:59.414Z,23.40
2023-05-23T06:05:31.758Z,23.40
2023-05-23T06:07:59.771Z,23.40
2023-05-23T06:10:28.046Z,23.30
2023-05-23T06:12:57.355Z,23.30
2023-05-23T06:15:25.287Z,23.40
2023-05-23T06:17:53.823Z,23.40
2023-05-23T06:20:22.179Z,23.50
2023-05-23T06:22:50.481Z,23.50
2023-05-23T06:25:18.765Z,23.50
2023-05-23T06:27:47.894Z,23.70
2023-05-23T06:30:17.945Z,23.70
2023-05-23T06:32:46.268Z,23.80
2023-05-23T06:35:14.938Z,23.80
2023-05-23T06:37:44.653Z,23.90
2023-05-23T06:40:14.883Z,23.90
2023-05-23T06:42:42.625Z,23.90
2023-05-23T06:45:14.262Z,24.00
2023-05-23T06:47:43.548Z,24.00
2023-05-23T06:53:15.322Z,23.90
2023-05-23T06:55:44.671Z,24.00
2023-05-23T06:58:13.604Z,24.00
2023-05-23T07:00:41.336Z,24.10
2023-05-23T07:03:13.742Z,24.10
2023-05-23T07:05:41.697Z,24.20
2023-05-23T07:08:13.464Z,24.20
2023-05-23T07:10:44.361Z,24.20
2023-05-23T07:13:33.651Z,24.30
2023-05-23T07:16:01.640Z,24.30
2023-05-23T07:18:29.420Z,24.40
2023-05-23T07:20:58.052Z,24.40
2023-05-23T07:23:26.746Z,24.50
2023-05-23T07:28:25.918Z,24.60
2023-05-23T07:30:58.703Z,24.60
2023-05-23T07:33:26.384Z,24.70
2023-05-23T07:35:56.400Z,24.70
2023-05-23T07:38:24.753Z,24.80
2023-05-23T07:40:59.138Z,24.90
2023-05-23T07:43:22.003Z,24.90
2023-05-23T07:45:49.742Z,24.90
2023-05-23T07:48:17.672Z,25.00
2023-05-23T07:50:45.564Z,25.00
2023-05-23T07:53:13.972Z,25.10
2023-05-23T07:55:42.016Z,25.10
2023-05-23T07:58:09.842Z,25.20
2023-05-23T08:00:39.364Z,25.20
2023-05-23T08:03:09.182Z,25.20
2023-05-23T08:05:39.098Z,25.20
2023-05-23T08:08:07.395Z,25.30
2023-05-23T08:10:35.738Z,25.30
2023-05-23T08:13:06.904Z,25.30
2023-05-23T08:15:36.341Z,25.30
2023-05-23T08:18:06.637Z,25.30
2023-05-23T08:20:34.300Z,25.40
2023-05-23T08:23:03.252Z,25.40
2023-05-23T08:25:32.673Z,25.40
2023-05-23T08:28:02.265Z,25.40
2023-05-23T08:30:47.103Z,25.40
2023-05-23T08:33:15.513Z,25.40
2023-05-23T08:35:45.481Z,25.50
2023-05-23T08:38:13.788Z,25.50
2023-05-23T08:40:47.197Z,25.60
2023-05-23T08:43:15.171Z,25.70
2023-05-23T08:45:44.274Z,25.70
2023-05-23T08:48:17.046Z,25.70
2023-05-23T08:50:47.892Z,25.80
2023-05-23T08:53:20.751Z,25.90
2023-05-23T08:55:56.002Z,25.90
2023-05-23T08:58:26.240Z,26.00
2023-05-23T09:00:55.803Z,26.00
2023-05-23T09:03:24.004Z,26.00
2023-05-23T09:05:57.615Z,26.00
2023-05-23T09:08:25.859Z,25.90
2023-05-23T09:10:56.293Z,26.00
2023-05-23T09:13:24.245Z,26.00
2023-05-23T09:16:01.767Z,26.00
2023-05-23T09:18:37.977Z,25.90
2023-05-23T09:21:08.163Z,26.00
2023-05-23T09:23:39.027Z,26.00
2023-05-23T09:26:09.785Z,26.10
2023-05-23T09:28:39.387Z,26.20
2023-05-23T09:31:11.849Z,26.20
2023-05-23T09:33:42.475Z,26.20
2023-05-23T09:36:10.807Z,26.20
2023-05-23T09:38:39.631Z,26.30
2023-05-23T09:41:08.553Z,26.30
2023-05-23T09:43:36.619Z,26.30
2023-05-23T09:46:11.893Z,26.30
2023-05-23T09:48:40.678Z,26.30
2023-05-23T09:51:10.408Z,26.40
2023-05-23T09:53:38.319Z,26.40
2023-05-23T09:56:07.116Z,26.40
2023-05-23T09:58:40.129Z,26.50
2023-05-23T10:01:11.020Z,26.50
2023-05-23T10:03:43.136Z,26.50
2023-05-23T10:06:27.232Z,26.50
2023-05-23T10:09:04.026Z,26.50
2023-05-23T10:11:38.895Z,26.60
2023-05-23T10:14:10.320Z,26.60
2023-05-23T10:16:44.704Z,26.70
2023-05-23T10:19:16.170Z,26.70
2023-05-23T10:21:46.709Z,26.70
2023-05-23T10:24:15.331Z,26.70
2023-05-23T10:26:45.696Z,26.80
2023-05-23T10:29:13.440Z,26.80
2023-05-23T10:31:41.992Z,26.80
2023-05-23T10:34:19.838Z,26.80
2023-05-23T10:36:54.181Z,26.90
2023-05-23T10:39:59.690Z,27.00
2023-05-23T10:42:31.187Z,26.90
2023-05-23T10:45:21.567Z,27.00
2023-05-23T10:47:51.353Z,26.90
2023-05-23T10:50:34.136Z,26.90
2023-05-23T10:53:03.878Z,27.00
2023-05-23T10:55:36.097Z,27.00
2023-05-23T10:58:22.990Z,27.00
2023-05-23T11:01:04.772Z,27.10
2023-05-23T11:03:41.391Z,27.10
2023-05-23T11:06:15.609Z,27.10
2023-05-23T11:08:48.769Z,27.20
2023-05-23T11:11:16.675Z,27.20
2023-05-23T11:14:03.010Z,27.30
2023-05-23T11:16:43.349Z,27.30
2023-05-23T11:19:23.282Z,27.30
2023-05-23T11:21:54.111Z,27.40
2023-05-23T11:24:22.158Z,27.40
2023-05-23T11:27:04.332Z,27.40
2023-05-23T11:29:32.616Z,27.50
2023-05-23T11:32:04.417Z,27.50
2023-05-23T11:34:32.846Z,27.60
2023-05-23T11:37:01.226Z,27.60
2023-05-23T11:39:30.081Z,27.60
2023-05-23T11:42:02.403Z,27.60
2023-05-23T11:44:30.547Z,27.70
2023-05-23T11:47:05.574Z,27.70
2023-05-23T11:49:36.104Z,27.70
2023-05-23T11:52:05.399Z,27.70
2023-05-23T11:54:33.857Z,27.70
2023-05-23T11:57:04.034Z,27.70
2023-05-23T11:59:31.573Z,27.80
2023-05-23T12:02:00.116Z,27.80
2023-05-23T12:04:27.782Z,27.80
2023-05-23T12:06:56.194Z,27.80
2023-05-23T12:09:25.143Z,27.80
2023-05-23T12:11:53.818Z,27.90
2023-05-23T12:14:22.105Z,27.90
2023-05-23T12:16:49.715Z,28.00
2023-05-23T12:19:18.439Z,28.10
2023-05-23T12:21:48.320Z,28.20
2023-05-23T12:24:21.423Z,28.30
2023-05-23T12:26:58.067Z,28.40
2023-05-23T12:29:35.273Z,28.50
2023-05-23T12:32:05.220Z,28.60
2023-05-23T12:34:33.285Z,28.60
2023-05-23T12:37:19.060Z,28.70
2023-05-23T12:39:37.468Z,28.70
2023-05-23T12:42:09.834Z,28.70
2023-05-23T12:44:37.669Z,28.70
2023-05-23T12:47:06.223Z,28.80
2023-05-23T12:49:34.807Z,28.70
2023-05-23T12:52:03.195Z,28.70
2023-05-23T12:54:31.036Z,28.80
2023-05-23T12:56:59.115Z,28.80
2023-05-23T12:59:26.701Z,28.90
2023-05-23T13:01:55.595Z,28.90
2023-05-23T13:04:23.974Z,28.90
2023-05-23T13:06:51.564Z,29.00
2023-05-23T13:09:20.249Z,29.00
2023-05-23T13:11:48.311Z,29.10
2023-05-23T13:14:16.987Z,29.20
2023-05-23T13:16:45.941Z,29.20
2023-05-23T13:19:13.862Z,29.40
2023-05-23T13:21:43.215Z,29.50
2023-05-23T13:24:11.156Z,29.50
2023-05-23T13:26:39.379Z,29.60
2023-05-23T13:29:07.530Z,29.80
2023-05-23T13:31:35.448Z,29.90
2023-05-23T13:34:03.676Z,30.00
2023-05-23T13:36:31.964Z,30.10
2023-05-23T13:39:01.659Z,30.10
2023-05-23T13:41:32.990Z,30.30
2023-05-23T13:44:00.851Z,30.30
2023-05-23T13:46:28.499Z,30.50
2023-05-23T13:48:56.200Z,30.40
2023-05-23T13:51:24.390Z,30.50
2023-05-23T13:53:52.735Z,30.50
2023-05-23T13:56:20.984Z,30.60
2023-05-23T13:58:48.486Z,30.60
2023-05-23T14:01:16.391Z,30.70
2023-05-23T14:03:44.117Z,30.80
2023-05-23T14:06:13.105Z,30.80
2023-05-23T14:08:40.892Z,30.90
2023-05-23T14:11:08.749Z,31.00
2023-05-23T14:13:36.748Z,31.00
2023-05-23T14:16:05.063Z,30.90
2023-05-23T14:18:33.421Z,30.70
2023-05-23T14:21:01.368Z,30.60
2023-05-23T14:23:30.369Z,30.60
2023-05-23T14:25:58.529Z,30.80
2023-05-23T14:28:26.470Z,31.10
2023-05-23T14:30:55.826Z,31.10
2023-05-23T14:33:23.578Z,31.20
2023-05-23T14:35:51.528Z,31.40
2023-05-23T14:38:20.661Z,31.60
2023-05-23T14:40:49.108Z,31.70
2023-05-23T14:43:17.009Z,31.90
2023-05-23T14:45:45.286Z,32.10
2023-05-23T14:48:13.226Z,32.10
2023-05-23T14:50:41.593Z,32.20
2023-05-23T14:53:09.714Z,32.40
2023-05-23T14:55:37.440Z,32.10
2023-05-23T14:58:06.713Z,32.10
2023-05-23T15:00:34.837Z,32.20
2023-05-23T15:03:02.970Z,32.00
2023-05-23T15:05:30.471Z,31.80
2023-05-23T15:07:58.196Z,31.80
2023-05-23T15:10:27.129Z,31.80
2023-05-23T15:12:55.439Z,31.90
2023-05-23T15:15:24.187Z,32.00
2023-05-23T15:17:52.032Z,32.20
2023-05-23T15:20:19.746Z,32.50
2023-05-23T15:22:47.430Z,32.60
2023-05-23T15:25:15.580Z,32.90
2023-05-23T15:27:47.922Z,33.00
2023-05-23T15:30:16.005Z,33.20
2023-05-23T15:32:44.458Z,33.40
2023-05-23T15:35:12.324Z,33.40
2023-05-23T15:37:41.539Z,33.60
2023-05-23T15:40:10.580Z,33.80
2023-05-23T15:42:38.385Z,33.90
2023-05-23T15:45:07.300Z,33.90
2023-05-23T15:47:35.268Z,34.00
2023-05-23T15:50:02.997Z,34.00
2023-05-23T15:52:30.645Z,34.00
2023-05-23T15:54:59.073Z,34.10
2023-05-23T15:57:26.598Z,34.20
2023-05-23T15:59:55.117Z,34.30
2023-05-23T16:02:22.768Z,34.40
2023-05-23T16:04:50.586Z,34.40
2023-05-23T16:07:18.581Z,34.50
2023-05-23T16:09:47.289Z,34.50
2023-05-23T16:12:15.339Z,34.60
2023-05-23T16:14:42.872Z,34.60
2023-05-23T16:17:11.307Z,34.70
2023-05-23T16:19:40.896Z,34.50
2023-05-23T16:22:08.527Z,34.60
2023-05-23T16:24:36.677Z,34.50
2023-05-23T16:27:05.636Z,34.50
2023-05-23T16:29:33.922Z,34.30
2023-05-23T16:32:02.287Z,34.10
2023-05-23T16:34:30.256Z,33.80
2023-05-23T16:36:58.312Z,33.70
2023-05-23T16:39:27.019Z,33.70
2023-05-23T16:41:54.798Z,33.70
2023-05-23T16:44:22.569Z,33.70
2023-05-23T16:46:50.123Z,33.70
2023-05-23T16:49:17.810Z,33.80
2023-05-23T16:51:48.671Z,33.80
2023-05-23T16:54:16.901Z,33.80
2023-05-23T16:56:48.136Z,33.80
2023-05-23T16:59:16.215Z,33.70
2023-05-23T17:01:44.390Z,33.70
2023-05-23T17:04:12.154Z,33.50
2023-05-23T17:06:39.778Z,33.20
2023-05-23T17:09:07.505Z,33.10
2023-05-23T17:11:35.544Z,33.10
2023-05-23T17:14:03.796Z,33.00
2023-05-23T17:16:33.776Z,33.00
2023-05-23T17:19:02.319Z,32.90
2023-05-23T17:21:30.318Z,32.90
2023-05-23T17:23:58.824Z,32.80
2023-05-23T17:26:27.856Z,32.70
2023-05-23T17:28:55.476Z,32.70
2023-05-23T17:31:23.497Z,32.70
2023-05-23T17:33:50.992Z,32.60
2023-05-23T17:36:18.610Z,32.50
2023-05-23T17:38:47.896Z,32.30
2023-05-23T17:41:16.435Z,32.20
2023-05-23T17:43:44.425Z,32.10
2023-05-23T17:46:12.574Z,32.00
2023-05-23T17:48:47.830Z,31.80
2023-05-23T17:51:10.161Z,31.60
2023-05-23T17:53:41.512Z,31.40
2023-05-23T17:56:12.813Z,31.20
2023-05-23T17:58:43.266Z,31.00
2023-05-23T18:01:11.900Z,30.80
2023-05-23T18:03:39.906Z,30.60
2023-05-23T18:06:08.787Z,30.50
2023-05-23T18:08:36.748Z,30.30
2023-05-23T18:11:06.393Z,30.20
2023-05-23T18:13:48.350Z,30.10
2023-05-23T18:16:20.080Z,29.90
2023-05-23T18:18:47.568Z,29.80
2023-05-23T18:21:16.815Z,29.70
2023-05-23T18:23:45.244Z,29.60
2023-05-23T18:26:13.053Z,29.50
2023-05-23T18:28:41.361Z,29.30
2023-05-23T18:31:09.775Z,29.20
2023-05-23T18:33:37.398Z,29.10
2023-05-23T18:36:06.018Z,29.10
2023-05-23T18:38:34.407Z,29.00
2023-05-23T18:41:02.244Z,28.90
2023-05-23T18:43:29.992Z,28.80
2023-05-23T18:45:58.443Z,28.70
2023-05-23T18:48:27.951Z,28.60
2023-05-23T18:50:56.020Z,28.50
2023-05-23T18:53:24.012Z,28.40
2023-05-23T18:55:51.958Z,28.30
2023-05-23T18:58:20.100Z,28.20
2023-05-23T19:00:48.053Z,28.20
2023-05-23T19:03:17.532Z,28.10
2023-05-23T19:05:46.061Z,28.00
2023-05-23T19:08:13.883Z,27.90
2023-05-23T19:10:42.174Z,27.80
2023-05-23T19:13:10.134Z,27.70
2023-05-23T19:15:38.565Z,27.70
2023-05-23T19:18:07.950Z,27.60
2023-05-23T19:20:38.358Z,27.50
2023-05-23T19:23:07.529Z,27.40
2023-05-23T19:25:36.244Z,27.40
2023-05-23T19:28:05.148Z,27.30
2023-05-23T19:30:33.130Z,27.20
2023-05-23T19:33:01.854Z,27.20
2023-05-23T19:35:29.425Z,27.10
2023-05-23T19:37:58.393Z,27.10
2023-05-23T19:40:27.581Z,27.10
2023-05-23T19:42:57.502Z,27.00
2023-05-23T19:45:25.902Z,27.00
2023-05-23T19:47:54.371Z,27.00
2023-05-23T19:50:24.355Z,26.90
2023-05-23T19:52:53.040Z,26.90
2023-05-23T19:55:21.747Z,26.80
2023-05-23T19:57:50.188Z,26.80
2023-05-23T20:00:18.381Z,26.70
2023-05-23T20:02:47.857Z,26.70
2023-05-23T20:05:16.553Z,26.70
2023-05-23T20:07:47.178Z,26.70
2023-05-23T20:10:16.861Z,26.70
2023-05-23T20:12:44.962Z,26.60
2023-05-23T20:15:15.891Z,26.60
2023-05-23T20:17:51.147Z,26.50
2023-05-23T20:20:19.732Z,26.50
2023-05-23T20:22:47.958Z,26.40
2023-05-23T20:25:23.490Z,26.40
2023-05-23T20:27:55.874Z,26.40
2023-05-23T20:30:29.045Z,26.40
2023-05-23T20:32:58.750Z,26.40
2023-05-23T20:35:28.144Z,26.40
2023-05-23T20:37:55.824Z,26.40
2023-05-23T20:40:27.141Z,26.30
2023-05-23T20:42:56.132Z,26.30
2023-05-23T20:45:24.012Z,26.20
2023-05-23T20:47:54.062Z,26.20
2023-05-23T20:50:22.660Z,26.20
2023-05-23T20:52:51.285Z,26.10
2023-05-23T20:55:19.194Z,26.10
2023-05-23T20:57:54.564Z,26.10
2023-05-23T21:00:22.903Z,26.20
2023-05-23T21:02:51.154Z,26.10
2023-05-23T21:05:20.624Z,26.20
2023-05-23T21:07:48.460Z,26.20
2023-05-23T21:10:16.396Z,26.20
2023-05-23T21:12:46.110Z,26.20
2023-05-23T21:15:13.962Z,26.20
2023-05-23T21:17:41.967Z,26.20
2023-05-23T21:20:11.002Z,26.20
2023-05-23T21:22:38.839Z,26.20
2023-05-23T21:25:06.926Z,26.20
2023-05-23T21:27:35.053Z,26.20
2023-05-23T21:30:03.634Z,26.20
2023-05-23T21:32:32.951Z,26.20
2023-05-23T21:35:00.526Z,26.20
2023-05-23T21:37:28.414Z,26.10
2023-05-23T21:39:56.014Z,26.20
2023-05-23T21:42:24.966Z,26.10
2023-05-23T21:44:52.822Z,26.10
2023-05-23T21:47:24.760Z,26.10
2023-05-23T21:49:52.240Z,26.10
2023-05-23T21:52:20.426Z,26.10
2023-05-23T21:54:49.082Z,26.00
2023-05-23T21:57:16.930Z,26.00
2023-05-23T21:59:45.006Z,26.00
2023-05-23T22:02:12.668Z,25.90
2023-05-23T22:04:40.416Z,26.00
2023-05-23T22:07:08.282Z,26.00
2023-05-23T22:09:36.324Z,26.00
2023-05-23T22:12:04.899Z,26.00
2023-05-23T22:14:32.752Z,25.90
2023-05-23T22:17:02.673Z,25.90
2023-05-23T22:19:30.629Z,26.00
2023-05-23T22:21:58.692Z,26.00
2023-05-23T22:24:26.596Z,25.90
2023-05-23T22:26:54.354Z,25.90
2023-05-23T22:29:22.160Z,25.90
2023-05-23T22:31:53.259Z,25.90
2023-05-23T22:34:20.931Z,25.90
2023-05-23T22:36:49.131Z,25.80
2023-05-23T22:39:20.366Z,25.80
2023-05-23T22:41:48.082Z,25.80
2023-05-23T22:44:16.650Z,25.80
2023-05-23T22:46:44.297Z,25.80
2023-05-23T22:49:11.869Z,25.70
2023-05-23T22:51:40.635Z,25.70
2023-05-23T22:54:08.491Z,25.70
2023-05-23T22:56:36.103Z,25.60
2023-05-23T22:59:07.402Z,25.60
2023-05-23T23:01:56.000Z,25.60
2023-05-23T23:04:25.710Z,25.60
2023-05-23T23:06:54.017Z,25.60
2023-05-23T23:09:21.868Z,25.50
2023-05-23T23:11:49.707Z,25.40
2023-05-23T23:14:17.678Z,25.40
2023-05-23T23:16:46.540Z,25.40
2023-05-23T23:19:15.005Z,25.30
2023-05-23T23:21:43.171Z,25.20
2023-05-23T23:24:11.512Z,25.10
2023-05-23T23:26:40.547Z,25.10
2023-05-23T23:29:09.431Z,25.10
2023-05-23T23:31:37.279Z,25.00
2023-05-23T23:34:05.008Z,25.00
2023-05-23T23:36:33.819Z,24.90
2023-05-23T23:39:02.362Z,24.90
2023-05-23T23:41:30.457Z,24.90
2023-05-23T23:43:59.035Z,24.80
2023-05-23T23:46:28.782Z,24.80
2023-05-23T23:48:56.497Z,24.80
2023-05-23T23:51:24.733Z,24.80
2023-05-23T23:53:54.008Z,24.80
2023-05-23T23:56:23.229Z,24.80
2023-05-23T23:58:52.887Z,24.80
